sensor_id;sensor_type;location;lat;lon;timestamp;pressure;altitude;pressure_sealevel;temperature;humidity
39949;BME280;29070;48.102;-1.652;2024-01-15T00:01:47;100945.34;;;4.02;76.67
39949;BME280;29070;48.102;-1.652;2024-01-15T00:06:49;100938.00;;;3.97;76.92
39949;BME280;29070;48.102;-1.652;2024-01-15T00:11:49;100927.16;;;4.02;76.91
39949;BME280;29070;48.102;-1.652;2024-01-15T00:16:50;100920.72;;;4.06;77.03
39949;BME280;29070;48.102;-1.652;2024-01-15T00:21:51;100917.97;;;4.08;77.08
39949;BME280;29070;48.102;-1.652;2024-01-15T00:26:51;100915.22;;;4.09;77.10
39949;BME280;29070;48.102;-1.652;2024-01-15T00:31:53;100910.03;;;4.09;77.01
39949;BME280;29070;48.102;-1.652;2024-01-15T00:36:54;100920.41;;;4.09;77.01
39949;BME280;29070;48.102;-1.652;2024-01-15T00:41:54;100925.91;;;4.06;76.95
39949;BME280;29070;48.102;-1.652;2024-01-15T00:46:54;100925.91;;;4.06;77.04
39949;BME280;29070;48.102;-1.652;2024-01-15T00:51:55;100917.97;;;4.08;77.01
39949;BME280;29070;48.102;-1.652;2024-01-15T00:56:55;100916.72;;;4.12;77.29
39949;BME280;29070;48.102;-1.652;2024-01-15T01:01:55;100912.47;;;4.11;77.19
39949;BME280;29070;48.102;-1.652;2024-01-15T01:06:56;100918.19;;;4.14;77.19
39949;BME280;29070;48.102;-1.652;2024-01-15T01:11:56;100901.00;;;4.13;77.11
39949;BME280;29070;48.102;-1.652;2024-01-15T01:16:56;100895.09;;;4.11;77.16
39949;BME280;29070;48.102;-1.652;2024-01-15T01:21:57;100879.16;;;4.06;77.00
39949;BME280;29070;48.102;-1.652;2024-01-15T01:26:57;100889.56;;;4.06;77.33
39949;BME280;29070;48.102;-1.652;2024-01-15T01:31:57;100875.59;;;4.07;77.38
39949;BME280;29070;48.102;-1.652;2024-01-15T01:36:58;100873.81;;;4.08;77.56
39949;BME280;29070;48.102;-1.652;2024-01-15T01:41:58;100866.53;;;4.11;77.43
39949;BME280;29070;48.102;-1.652;2024-01-15T01:46:59;100863.63;;;4.14;77.53
39949;BME280;29070;48.102;-1.652;2024-01-15T01:52:01;100859.44;;;4.13;77.39
39949;BME280;29070;48.102;-1.652;2024-01-15T01:57:04;100854.66;;;4.09;77.32
39949;BME280;29070;48.102;-1.652;2024-01-15T02:02:05;100846.06;;;4.08;77.13
39949;BME280;29070;48.102;-1.652;2024-01-15T02:07:05;100852.59;;;4.12;77.38
39949;BME280;29070;48.102;-1.652;2024-01-15T02:12:07;100856.47;;;4.08;77.43
39949;BME280;29070;48.102;-1.652;2024-01-15T02:17:07;100855.31;;;4.11;77.43
39949;BME280;29070;48.102;-1.652;2024-01-15T02:22:08;100859.44;;;4.13;77.74
39949;BME280;29070;48.102;-1.652;2024-01-15T02:27:08;100858.44;;;4.14;77.72
39949;BME280;29070;48.102;-1.652;2024-01-15T02:32:09;100866.22;;;4.14;77.87
39949;BME280;29070;48.102;-1.652;2024-01-15T02:37:09;100871.72;;;4.11;77.69
39949;BME280;29070;48.102;-1.652;2024-01-15T02:42:10;100868.16;;;4.12;77.82
39949;BME280;29070;48.102;-1.652;2024-01-15T02:47:10;100863.94;;;4.11;77.85
39949;BME280;29070;48.102;-1.652;2024-01-15T02:52:10;100861.31;;;4.11;77.94
39949;BME280;29070;48.102;-1.652;2024-01-15T02:57:11;100859.56;;;4.12;77.92
39949;BME280;29070;48.102;-1.652;2024-01-15T03:02:11;100867.22;;;4.13;77.91
39949;BME280;29070;48.102;-1.652;2024-01-15T03:07:11;100864.63;;;4.13;77.77
39949;BME280;29070;48.102;-1.652;2024-01-15T03:12:12;100871.56;;;4.13;78.01
39949;BME280;29070;48.102;-1.652;2024-01-15T03:17:12;100868.97;;;4.13;78.13
39949;BME280;29070;48.102;-1.652;2024-01-15T03:22:13;100868.97;;;4.13;78.14
39949;BME280;29070;48.102;-1.652;2024-01-15T03:27:13;100858.28;;;4.16;78.19
39949;BME280;29070;48.102;-1.652;2024-01-15T03:32:14;100851.31;;;4.16;78.33
39949;BME280;29070;48.102;-1.652;2024-01-15T03:37:15;100846.78;;;4.18;78.18
39949;BME280;29070;48.102;-1.652;2024-01-15T03:42:16;100843.53;;;4.16;78.48
39949;BME280;29070;48.102;-1.652;2024-01-15T03:47:16;100838.03;;;4.19;78.41
39949;BME280;29070;48.102;-1.652;2024-01-15T03:52:16;100844.03;;;4.20;78.48
39949;BME280;29070;48.102;-1.652;2024-01-15T03:57:17;100839.69;;;4.20;78.42
39949;BME280;29070;48.102;-1.652;2024-01-15T04:02:17;100827.34;;;4.23;78.38
39949;BME280;29070;48.102;-1.652;2024-01-15T04:07:17;100825.69;;;4.22;78.21
39949;BME280;29070;48.102;-1.652;2024-01-15T04:12:18;100817.09;;;4.21;78.45
39949;BME280;29070;48.102;-1.652;2024-01-15T04:17:18;100798.41;;;4.17;78.49
39949;BME280;29070;48.102;-1.652;2024-01-15T04:22:18;100808.78;;;4.17;78.42
39949;BME280;29070;48.102;-1.652;2024-01-15T04:27:19;100802.63;;;4.18;78.50
39949;BME280;29070;48.102;-1.652;2024-01-15T04:32:19;100800.03;;;4.18;78.77
39949;BME280;29070;48.102;-1.652;2024-01-15T04:37:19;100783.09;;;4.14;78.64
39949;BME280;29070;48.102;-1.652;2024-01-15T04:42:21;100783.41;;;4.11;78.47
39949;BME280;29070;48.102;-1.652;2024-01-15T04:47:21;100787.66;;;4.12;78.62
39949;BME280;29070;48.102;-1.652;2024-01-15T04:52:21;100789.94;;;4.15;78.48
39949;BME280;29070;48.102;-1.652;2024-01-15T04:57:22;100783.09;;;4.14;78.65
39949;BME280;29070;48.102;-1.652;2024-01-15T05:02:22;100789.81;;;4.17;78.52
39949;BME280;29070;48.102;-1.652;2024-01-15T05:07:22;100793.22;;;4.17;78.83
39949;BME280;29070;48.102;-1.652;2024-01-15T05:12:23;100788.81;;;4.18;78.80
39949;BME280;29070;48.102;-1.652;2024-01-15T05:17:23;100794.69;;;4.20;78.85
39949;BME280;29070;48.102;-1.652;2024-01-15T05:22:23;100788.66;;;4.19;78.82
39949;BME280;29070;48.102;-1.652;2024-01-15T05:27:25;100795.50;;;4.20;78.99
39949;BME280;29070;48.102;-1.652;2024-01-15T05:32:25;100780.72;;;4.21;78.92
39949;BME280;29070;48.102;-1.652;2024-01-15T05:37:26;100777.00;;;4.24;79.00
39949;BME280;29070;48.102;-1.652;2024-01-15T05:42:26;100763.34;;;4.22;78.96
39949;BME280;29070;48.102;-1.652;2024-01-15T05:47:26;100765.00;;;4.23;79.18
39949;BME280;29070;48.102;-1.652;2024-01-15T05:52:27;100767.22;;;4.17;79.29
39949;BME280;29070;48.102;-1.652;2024-01-15T05:57:27;100760.09;;;4.19;79.33
39949;BME280;29070;48.102;-1.652;2024-01-15T06:02:28;100756.53;;;4.20;79.27
39949;BME280;29070;48.102;-1.652;2024-01-15T06:07:28;100750.38;;;4.22;79.30
39949;BME280;29070;48.102;-1.652;2024-01-15T06:12:29;100741.75;;;4.21;79.43
39949;BME280;29070;48.102;-1.652;2024-01-15T06:17:29;100749.25;;;4.24;79.40
39949;BME280;29070;48.102;-1.652;2024-01-15T06:22:29;100766.59;;;4.24;79.29
39949;BME280;29070;48.102;-1.652;2024-01-15T06:27:29;100765.00;;;4.23;79.33
39949;BME280;29070;48.102;-1.652;2024-01-15T06:32:30;100765.81;;;4.23;79.48
39949;BME280;29070;48.102;-1.652;2024-01-15T06:37:30;100769.06;;;4.25;79.42
39949;BME280;29070;48.102;-1.652;2024-01-15T06:42:32;100768.53;;;4.22;79.49
39949;BME280;29070;48.102;-1.652;2024-01-15T06:47:33;100770.19;;;4.23;79.43
39949;BME280;29070;48.102;-1.652;2024-01-15T06:52:33;100763.88;;;4.25;79.29
39949;BME280;29070;48.102;-1.652;2024-01-15T06:57:33;100770.34;;;4.21;79.41
39949;BME280;29070;48.102;-1.652;2024-01-15T07:02:34;100785.13;;;4.20;79.50
39949;BME280;29070;48.102;-1.652;2024-01-15T07:07:34;100783.34;;;4.21;79.52
39949;BME280;29070;48.102;-1.652;2024-01-15T07:12:34;100791.94;;;4.22;79.75
39949;BME280;29070;48.102;-1.652;2024-01-15T07:17:35;100791.63;;;4.25;79.68
39949;BME280;29070;48.102;-1.652;2024-01-15T07:22:39;100783.84;;;4.25;79.78
39949;BME280;29070;48.102;-1.652;2024-01-15T07:27:39;100790.34;;;4.29;79.86
39949;BME280;29070;48.102;-1.652;2024-01-15T07:32:40;100790.69;;;4.26;80.01
39949;BME280;29070;48.102;-1.652;2024-01-15T07:37:41;100780.28;;;4.26;79.80
39949;BME280;29070;48.102;-1.652;2024-01-15T07:42:41;100787.09;;;4.27;79.86
39949;BME280;29070;48.102;-1.652;2024-01-15T07:47:43;100784.06;;;4.31;80.05
39949;BME280;29070;48.102;-1.652;2024-01-15T07:52:44;100788.28;;;4.32;79.88
39949;BME280;29070;48.102;-1.652;2024-01-15T07:57:44;100784.88;;;4.32;79.88
39949;BME280;29070;48.102;-1.652;2024-01-15T08:02:44;100794.97;;;4.35;79.90
39949;BME280;29070;48.102;-1.652;2024-01-15T08:07:45;100792.22;;;4.36;79.97
39949;BME280;29070;48.102;-1.652;2024-01-15T08:12:45;100795.63;;;4.37;80.07
39949;BME280;29070;48.102;-1.652;2024-01-15T08:17:45;100795.25;;;4.32;80.17
39949;BME280;29070;48.102;-1.652;2024-01-15T08:22:46;100810.22;;;4.38;80.24
39949;BME280;29070;48.102;-1.652;2024-01-15T08:27:47;100823.91;;;4.40;80.44
39949;BME280;29070;48.102;-1.652;2024-01-15T08:32:47;100831.09;;;4.46;80.29
39949;BME280;29070;48.102;-1.652;2024-01-15T08:37:52;100826.25;;;4.51;80.29
39949;BME280;29070;48.102;-1.652;2024-01-15T08:42:52;100835.84;;;4.51;80.40
39949;BME280;29070;48.102;-1.652;2024-01-15T08:47:53;100830.66;;;4.51;80.40
39949;BME280;29070;48.102;-1.652;2024-01-15T08:52:53;100840.06;;;4.52;80.39
39949;BME280;29070;48.102;-1.652;2024-01-15T09:03:55;100843.78;;;4.49;80.42
39949;BME280;29070;48.102;-1.652;2024-01-15T09:08:55;100853.19;;;4.50;80.39
39949;BME280;29070;48.102;-1.652;2024-01-15T09:13:56;100859.69;;;4.46;80.38
39949;BME280;29070;48.102;-1.652;2024-01-15T09:18:56;100864.13;;;4.36;80.38
39949;BME280;29070;48.102;-1.652;2024-01-15T09:23:57;100869.94;;;4.30;80.35
39949;BME280;29070;48.102;-1.652;2024-01-15T09:28:58;100859.56;;;4.30;80.41
39949;BME280;29070;48.102;-1.652;2024-01-15T09:33:58;100876.69;;;4.41;80.41
39949;BME280;29070;48.102;-1.652;2024-01-15T09:39:00;100884.25;;;4.52;80.41
39949;BME280;29070;48.102;-1.652;2024-01-15T09:44:00;100889.69;;;4.67;80.72
39949;BME280;29070;48.102;-1.652;2024-01-15T09:49:02;100888.84;;;4.84;80.49
39949;BME280;29070;48.102;-1.652;2024-01-15T09:54:02;100901.00;;;5.02;80.25
39949;BME280;29070;48.102;-1.652;2024-01-15T09:59:04;100895.56;;;5.21;80.19
39949;BME280;29070;48.102;-1.652;2024-01-15T10:04:04;100890.13;;;5.41;80.39
39949;BME280;29070;48.102;-1.652;2024-01-15T10:09:05;100886.28;;;5.61;80.16
39949;BME280;29070;48.102;-1.652;2024-01-15T10:14:05;100894.75;;;5.63;79.44
39949;BME280;29070;48.102;-1.652;2024-01-15T10:19:07;100892.00;;;5.65;79.70
39949;BME280;29070;48.102;-1.652;2024-01-15T10:24:07;100909.91;;;5.68;79.42
39949;BME280;29070;48.102;-1.652;2024-01-15T10:29:08;100907.69;;;5.81;79.08
39949;BME280;29070;48.102;-1.652;2024-01-15T10:34:12;100906.28;;;6.11;79.07
39949;BME280;29070;48.102;-1.652;2024-01-15T10:39:13;100908.91;;;6.36;77.90
39949;BME280;29070;48.102;-1.652;2024-01-15T10:44:14;100919.00;;;6.31;77.90
39949;BME280;29070;48.102;-1.652;2024-01-15T10:49:14;100928.50;;;6.40;77.92
39949;BME280;29070;48.102;-1.652;2024-01-15T10:54:15;100925.88;;;6.40;77.69
39949;BME280;29070;48.102;-1.652;2024-01-15T10:59:16;100928.50;;;6.40;77.47
39949;BME280;29070;48.102;-1.652;2024-01-15T11:04:17;100934.66;;;6.39;77.32
39949;BME280;29070;48.102;-1.652;2024-01-15T11:09:18;100932.56;;;6.43;77.21
39949;BME280;29070;48.102;-1.652;2024-01-15T11:14:44;100928.16;;;6.43;76.10
39949;BME280;29070;48.102;-1.652;2024-01-15T11:19:50;100931.25;;;6.47;76.76
39949;BME280;29070;48.102;-1.652;2024-01-15T11:24:50;100941.53;;;6.57;76.96
39949;BME280;29070;48.102;-1.652;2024-01-15T11:30:02;100939.41;;;6.52;76.27
39949;BME280;29070;48.102;-1.652;2024-01-15T11:35:03;100936.66;;;6.62;76.81
39949;BME280;29070;48.102;-1.652;2024-01-15T11:40:04;100942.34;;;6.65;76.34
39949;BME280;29070;48.102;-1.652;2024-01-15T11:45:04;100945.25;;;6.71;76.16
39949;BME280;29070;48.102;-1.652;2024-01-15T11:50:05;100932.22;;;6.79;76.24
39949;BME280;29070;48.102;-1.652;2024-01-15T11:55:33;100935.78;;;6.78;75.83
39949;BME280;29070;48.102;-1.652;2024-01-15T12:00:34;100928.00;;;6.70;75.52
39949;BME280;29070;48.102;-1.652;2024-01-15T12:05:37;100916.75;;;6.61;75.29
39949;BME280;29070;48.102;-1.652;2024-01-15T12:10:38;100923.09;;;6.75;75.54
39949;BME280;29070;48.102;-1.652;2024-01-15T12:15:42;100919.97;;;6.79;75.46
39949;BME280;29070;48.102;-1.652;2024-01-15T12:20:43;100919.31;;;6.94;75.45
39949;BME280;29070;48.102;-1.652;2024-01-15T12:25:44;100930.56;;;7.02;75.42
39949;BME280;29070;48.102;-1.652;2024-01-15T12:30:46;100920.25;;;7.09;74.81
39949;BME280;29070;48.102;-1.652;2024-01-15T12:35:49;100919.59;;;7.15;74.94
39949;BME280;29070;48.102;-1.652;2024-01-15T12:40:52;100919.25;;;7.27;74.26
39949;BME280;29070;48.102;-1.652;2024-01-15T12:45:53;100906.19;;;7.27;73.73
39949;BME280;29070;48.102;-1.652;2024-01-15T12:50:53;100909.13;;;7.23;73.47
39949;BME280;29070;48.102;-1.652;2024-01-15T12:55:53;100898.84;;;7.30;73.25
39949;BME280;29070;48.102;-1.652;2024-01-15T13:00:54;100900.75;;;7.44;72.76
39949;BME280;29070;48.102;-1.652;2024-01-15T13:05:54;100892.03;;;7.52;72.20
39949;BME280;29070;48.102;-1.652;2024-01-15T13:10:55;100894.75;;;7.67;72.12
39949;BME280;29070;48.102;-1.652;2024-01-15T13:15:57;100895.78;;;7.89;71.45
39949;BME280;29070;48.102;-1.652;2024-01-15T13:20:57;100898.69;;;7.94;71.48
39949;BME280;29070;48.102;-1.652;2024-01-15T13:25:57;100898.72;;;7.86;70.97
39949;BME280;29070;48.102;-1.652;2024-01-15T13:30:58;100895.72;;;7.97;70.78
39949;BME280;29070;48.102;-1.652;2024-01-15T13:35:58;100900.25;;;8.04;70.78
39949;BME280;29070;48.102;-1.652;2024-01-15T13:40:59;100885.66;;;7.86;70.41
39949;BME280;29070;48.102;-1.652;2024-01-15T13:46:00;100881.81;;;7.74;69.96
39949;BME280;29070;48.102;-1.652;2024-01-15T13:51:00;100885.69;;;7.78;70.01
39949;BME280;29070;48.102;-1.652;2024-01-15T13:56:01;100888.06;;;7.96;69.97
39949;BME280;29070;48.102;-1.652;2024-01-15T14:01:01;100887.34;;;7.79;69.54
39949;BME280;29070;48.102;-1.652;2024-01-15T14:06:04;100886.75;;;7.69;69.54
39949;BME280;29070;48.102;-1.652;2024-01-15T14:11:08;100876.97;;;7.62;69.48
39949;BME280;29070;48.102;-1.652;2024-01-15T14:16:10;100883.25;;;7.53;69.24
39949;BME280;29070;48.102;-1.652;2024-01-15T14:21:12;100871.47;;;7.49;69.26
39949;BME280;29070;48.102;-1.652;2024-01-15T14:26:12;100875.09;;;7.48;69.52
39949;BME280;29070;48.102;-1.652;2024-01-15T14:31:12;100883.34;;;7.29;68.77
39949;BME280;29070;48.102;-1.652;2024-01-15T14:36:13;100891.03;;;7.22;68.77
39949;BME280;29070;48.102;-1.652;2024-01-15T14:41:13;100896.13;;;7.07;68.54
39949;BME280;29070;48.102;-1.652;2024-01-15T14:46:13;100890.59;;;6.94;68.16
39949;BME280;29070;48.102;-1.652;2024-01-15T14:51:14;100890.78;;;6.92;68.17
39949;BME280;29070;48.102;-1.652;2024-01-15T14:56:14;100898.09;;;6.97;68.60
39949;BME280;29070;48.102;-1.652;2024-01-15T15:01:15;100900.84;;;7.12;68.54
39949;BME280;29070;48.102;-1.652;2024-01-15T15:06:15;100888.88;;;7.34;68.36
39949;BME280;29070;48.102;-1.652;2024-01-15T15:11:16;100888.03;;;7.33;67.97
39949;BME280;29070;48.102;-1.652;2024-01-15T15:16:16;100892.13;;;7.36;67.90
39949;BME280;29070;48.102;-1.652;2024-01-15T15:21:17;100891.47;;;7.34;67.62
39949;BME280;29070;48.102;-1.652;2024-01-15T15:26:17;100891.34;;;7.19;67.26
39949;BME280;29070;48.102;-1.652;2024-01-15T15:31:17;100894.38;;;6.99;67.19
39949;BME280;29070;48.102;-1.652;2024-01-15T15:36:18;100899.63;;;6.75;67.11
39949;BME280;29070;48.102;-1.652;2024-01-15T15:41:19;100905.66;;;6.59;66.51
39949;BME280;29070;48.102;-1.652;2024-01-15T15:46:19;100909.91;;;6.52;66.79
39949;BME280;29070;48.102;-1.652;2024-01-15T15:51:20;100922.63;;;6.46;66.93
39949;BME280;29070;48.102;-1.652;2024-01-15T15:56:20;100923.59;;;6.37;66.80
39949;BME280;29070;48.102;-1.652;2024-01-15T16:01:20;100915.25;;;6.25;66.71
39949;BME280;29070;48.102;-1.652;2024-01-15T16:06:22;100922.59;;;6.22;66.68
39949;BME280;29070;48.102;-1.652;2024-01-15T16:11:22;100923.38;;;6.06;66.81
39949;BME280;29070;48.102;-1.652;2024-01-15T16:16:23;100931.34;;;5.96;66.29
39949;BME280;29070;48.102;-1.652;2024-01-15T16:21:23;100925.91;;;5.89;66.64
39949;BME280;29070;48.102;-1.652;2024-01-15T16:26:24;100930.78;;;5.76;66.35
39949;BME280;29070;48.102;-1.652;2024-01-15T16:31:24;100946.53;;;5.66;66.15
39949;BME280;29070;48.102;-1.652;2024-01-15T16:36:25;100942.22;;;5.49;66.56
39949;BME280;29070;48.102;-1.652;2024-01-15T16:41:25;100944.22;;;5.29;66.50
39949;BME280;29070;48.102;-1.652;2024-01-15T16:46:26;100953.22;;;5.08;66.40
39949;BME280;29070;48.102;-1.652;2024-01-15T16:51:26;100958.91;;;4.86;66.62
39949;BME280;29070;48.102;-1.652;2024-01-15T16:56:26;100969.63;;;4.65;66.63
39949;BME280;29070;48.102;-1.652;2024-01-15T17:01:27;100966.91;;;4.48;66.61
39949;BME280;29070;48.102;-1.652;2024-01-15T17:06:27;100962.69;;;4.29;66.22
39949;BME280;29070;48.102;-1.652;2024-01-15T17:11:27;100964.66;;;4.17;66.75
39949;BME280;29070;48.102;-1.652;2024-01-15T17:16:28;100958.56;;;4.09;66.73
39949;BME280;29070;48.102;-1.652;2024-01-15T17:21:28;100963.97;;;3.97;66.71
39949;BME280;29070;48.102;-1.652;2024-01-15T17:26:29;100966.31;;;3.91;66.81
39949;BME280;29070;48.102;-1.652;2024-01-15T17:31:30;100975.94;;;3.80;66.68
39949;BME280;29070;48.102;-1.652;2024-01-15T17:36:30;100984.88;;;3.68;66.88
39949;BME280;29070;48.102;-1.652;2024-01-15T17:41:32;100992.16;;;3.55;66.77
39949;BME280;29070;48.102;-1.652;2024-01-15T17:46:32;100992.91;;;3.37;67.05
39949;BME280;29070;48.102;-1.652;2024-01-15T17:51:33;100990.22;;;3.29;66.99
39949;BME280;29070;48.102;-1.652;2024-01-15T17:56:35;100995.13;;;3.13;67.08
39949;BME280;29070;48.102;-1.652;2024-01-15T18:01:35;101003.63;;;3.05;67.38
39949;BME280;29070;48.102;-1.652;2024-01-15T18:06:36;101004.72;;;2.93;67.19
39949;BME280;29070;48.102;-1.652;2024-01-15T18:11:36;100997.91;;;2.82;67.17
39949;BME280;29070;48.102;-1.652;2024-01-15T18:16:37;100997.91;;;2.72;67.01
39949;BME280;29070;48.102;-1.652;2024-01-15T18:21:37;101009.25;;;2.61;67.15
39949;BME280;29070;48.102;-1.652;2024-01-15T18:26:37;101010.31;;;2.49;67.46
39949;BME280;29070;48.102;-1.652;2024-01-15T18:31:39;101008.53;;;2.40;67.62
39949;BME280;29070;48.102;-1.652;2024-01-15T18:36:40;101006.88;;;2.29;67.49
39949;BME280;29070;48.102;-1.652;2024-01-15T18:41:43;101008.63;;;2.19;67.41
39949;BME280;29070;48.102;-1.652;2024-01-15T18:46:43;101017.06;;;2.11;67.70
39949;BME280;29070;48.102;-1.652;2024-01-15T18:51:45;101029.41;;;1.98;67.78
39949;BME280;29070;48.102;-1.652;2024-01-15T18:56:51;101037.00;;;1.89;68.19
39949;BME280;29070;48.102;-1.652;2024-01-15T19:01:51;101045.16;;;1.85;67.88
39949;BME280;29070;48.102;-1.652;2024-01-15T19:06:51;101043.50;;;1.74;67.64
39949;BME280;29070;48.102;-1.652;2024-01-15T19:11:52;101044.44;;;1.73;67.94
39949;BME280;29070;48.102;-1.652;2024-01-15T19:16:52;101043.31;;;1.66;68.28
39949;BME280;29070;48.102;-1.652;2024-01-15T19:21:54;101043.38;;;1.55;68.19
39949;BME280;29070;48.102;-1.652;2024-01-15T19:26:54;101048.69;;;1.53;68.19
39949;BME280;29070;48.102;-1.652;2024-01-15T19:31:54;101051.41;;;1.51;68.32
39949;BME280;29070;48.102;-1.652;2024-01-15T19:36:55;101065.84;;;1.54;68.54
39949;BME280;29070;48.102;-1.652;2024-01-15T19:41:55;101078.41;;;1.59;68.14
39949;BME280;29070;48.102;-1.652;2024-01-15T19:46:56;101075.56;;;1.62;68.17
39949;BME280;29070;48.102;-1.652;2024-01-15T19:51:56;101080.84;;;1.60;68.44
39949;BME280;29070;48.102;-1.652;2024-01-15T19:56:56;101078.91;;;1.52;68.41
39949;BME280;29070;48.102;-1.652;2024-01-15T20:01:57;101084.84;;;1.43;68.39
39949;BME280;29070;48.102;-1.652;2024-01-15T20:06:57;101096.38;;;1.39;68.18
39949;BME280;29070;48.102;-1.652;2024-01-15T20:11:58;101095.22;;;1.32;68.12
39949;BME280;29070;48.102;-1.652;2024-01-15T20:16:59;101092.19;;;1.27;68.36
39949;BME280;29070;48.102;-1.652;2024-01-15T20:22:00;101087.31;;;1.24;68.87
39949;BME280;29070;48.102;-1.652;2024-01-15T20:27:01;101078.13;;;1.20;68.40
39949;BME280;29070;48.102;-1.652;2024-01-15T20:32:01;101075.38;;;1.11;68.74
39949;BME280;29070;48.102;-1.652;2024-01-15T20:37:02;101077.50;;;1.06;68.96
39949;BME280;29070;48.102;-1.652;2024-01-15T20:42:03;101086.00;;;0.97;68.40
39949;BME280;29070;48.102;-1.652;2024-01-15T20:47:04;101090.72;;;0.92;68.80
39949;BME280;29070;48.102;-1.652;2024-01-15T20:52:04;101097.06;;;0.88;69.09
39949;BME280;29070;48.102;-1.652;2024-01-15T20:57:05;101100.72;;;0.85;69.27
39949;BME280;29070;48.102;-1.652;2024-01-15T21:02:05;101099.56;;;0.78;69.06
39949;BME280;29070;48.102;-1.652;2024-01-15T21:07:06;101101.44;;;0.76;68.97
39949;BME280;29070;48.102;-1.652;2024-01-15T21:12:07;101107.47;;;0.65;68.95
39949;BME280;29070;48.102;-1.652;2024-01-15T21:17:08;101104.19;;;0.63;69.53
39949;BME280;29070;48.102;-1.652;2024-01-15T21:22:08;101107.22;;;0.57;69.46
39949;BME280;29070;48.102;-1.652;2024-01-15T21:27:09;101095.38;;;0.54;68.80
39949;BME280;29070;48.102;-1.652;2024-01-15T21:32:09;101092.22;;;0.51;69.61
39949;BME280;29070;48.102;-1.652;2024-01-15T21:37:09;101090.09;;;0.45;69.11
39949;BME280;29070;48.102;-1.652;2024-01-15T21:42:11;101093.19;;;0.38;69.16
39949;BME280;29070;48.102;-1.652;2024-01-15T21:47:11;101096.25;;;0.32;68.94
39949;BME280;29070;48.102;-1.652;2024-01-15T21:52:12;101090.50;;;0.29;69.42
39949;BME280;29070;48.102;-1.652;2024-01-15T21:57:12;101095.66;;;0.29;69.95
39949;BME280;29070;48.102;-1.652;2024-01-15T22:02:12;101084.88;;;0.24;69.61
39949;BME280;29070;48.102;-1.652;2024-01-15T22:07:13;101084.75;;;0.25;69.93
39949;BME280;29070;48.102;-1.652;2024-01-15T22:12:13;101077.34;;;0.21;69.67
39949;BME280;29070;48.102;-1.652;2024-01-15T22:17:14;101078.41;;;0.18;69.88
39949;BME280;29070;48.102;-1.652;2024-01-15T22:22:14;101073.50;;;0.15;69.86
39949;BME280;29070;48.102;-1.652;2024-01-15T22:27:14;101073.72;;;0.12;69.96
39949;BME280;29070;48.102;-1.652;2024-01-15T22:32:15;101066.34;;;0.07;70.01
39949;BME280;29070;48.102;-1.652;2024-01-15T22:37:15;101070.06;;;0.03;70.24
39949;BME280;29070;48.102;-1.652;2024-01-15T22:42:17;101074.66;;;-0.01;69.96
39949;BME280;29070;48.102;-1.652;2024-01-15T22:47:18;101089.44;;;-0.03;70.01
39949;BME280;29070;48.102;-1.652;2024-01-15T22:52:19;101088.97;;;-0.08;69.80
39949;BME280;29070;48.102;-1.652;2024-01-15T22:57:19;101088.84;;;-0.17;69.95
39949;BME280;29070;48.102;-1.652;2024-01-15T23:02:19;101099.75;;;-0.14;70.01
39949;BME280;29070;48.102;-1.652;2024-01-15T23:07:21;101092.94;;;-0.15;70.32
39949;BME280;29070;48.102;-1.652;2024-01-15T23:12:21;101101.63;;;-0.16;70.05
39949;BME280;29070;48.102;-1.652;2024-01-15T23:17:21;101089.19;;;-0.11;70.64
39949;BME280;29070;48.102;-1.652;2024-01-15T23:22:22;101084.88;;;-0.10;70.46
39949;BME280;29070;48.102;-1.652;2024-01-15T23:27:23;101092.25;;;-0.17;70.69
39949;BME280;29070;48.102;-1.652;2024-01-15T23:32:23;101096.91;;;-0.22;70.84
39949;BME280;29070;48.102;-1.652;2024-01-15T23:37:24;101080.75;;;-0.24;70.57
39949;BME280;29070;48.102;-1.652;2024-01-15T23:42:24;101086.81;;;-0.36;71.04
39949;BME280;29070;48.102;-1.652;2024-01-15T23:47:24;101089.41;;;-0.36;70.28
39949;BME280;29070;48.102;-1.652;2024-01-15T23:52:25;101094.78;;;-0.40;70.36
39949;BME280;29070;48.102;-1.652;2024-01-15T23:57:25;101083.06;;;-0.44;70.62
